ADDS METAR Data INFO
IDs: Format: Raw Decoded Include TAF

Data at: 1750 UTC 21 Oct 2017

KTTA 211725Z AUTO 15005KT 10SM CLR 24/10 A3030 RMK AO2 T02440102
KTTA 211705Z AUTO 13003KT 10SM CLR 24/11 A3031 RMK AO2 T02410111
KTTA 211645Z AUTO 12005KT 10SM CLR 24/11 A3032 RMK AO2 T02380107
KTTA 211625Z AUTO 00000KT 10SM CLR 23/12 A3032 RMK AO2 T02290120
KTTA 211605Z AUTO 05003KT 10SM CLR 22/12 A3033 RMK AO2 T02240124
KTTA 211545Z AUTO 09003KT 10SM CLR 22/12 A3033 RMK AO2 T02170123
KTTA 211525Z AUTO 01003KT 10SM CLR 21/13 A3033 RMK AO2 T02080128
KTTA 211505Z AUTO 00000KT 10SM CLR 20/13 A3033 RMK AO2 T01950125
KTTA 211445Z AUTO 00000KT 10SM CLR 19/13 A3033 RMK AO2 T01850129
KTTA 211425Z AUTO 00000KT 10SM CLR 17/12 A3033 RMK AO2 T01700124
KTTA 211405Z AUTO 00000KT 10SM CLR 16/12 A3033 RMK AO2 T01560120
KTTA 211345Z AUTO 00000KT 10SM CLR 14/12 A3033 RMK AO2 T01390116
KTTA 211325Z AUTO 00000KT 10SM CLR 12/11 A3033 RMK AO2 T01210105
KTTA 211305Z AUTO 00000KT 10SM CLR 10/09 A3033 RMK AO2 T01000090
KTTA 211245Z AUTO 00000KT 10SM CLR 08/08 A3032 RMK AO2 T00810075
KTTA 211225Z AUTO 00000KT 10SM CLR 07/06 A3031 RMK AO2 T00650060
KTTA 211205Z AUTO 00000KT 10SM CLR 05/05 A3031 RMK AO2 T00530049
KTTA 211145Z AUTO 00000KT 06/06 A3030 RMK AO2 T00620060 PWINO
KTTA 211125Z AUTO 00000KT 10SM CLR 05/05 A3030 RMK AO2 T00540049
KTTA 211105Z AUTO 00000KT 10SM CLR 05/05 A3030 RMK AO2 T00520049
KTTA 211045Z AUTO 00000KT 10SM CLR 06/06 A3028 RMK AO2 T00580055
KTTA 211025Z AUTO 00000KT 7SM CLR 05/05 A3028 RMK AO2 T00540051
KTTA 211005Z AUTO 00000KT 10SM CLR 06/06 A3027 RMK AO2 T00600056
KTTA 210945Z AUTO 00000KT 10SM CLR 06/06 A3026 RMK AO2 T00610058
KTTA 210925Z AUTO 00000KT 7SM CLR 06/06 A3026 RMK AO2 T00620058
KTTA 210905Z AUTO 00000KT 10SM CLR 07/06 A3026 RMK AO2 T00650060
KTTA 210845Z AUTO 00000KT 10SM CLR 07/06 A3025 RMK AO2 T00650063
KTTA 210825Z AUTO 00000KT 10SM CLR 07/06 A3025 RMK AO2 T00680064
KTTA 210805Z AUTO 00000KT 10SM CLR 07/06 A3025 RMK AO2 T00670064
KTTA 210745Z AUTO 00000KT 10SM CLR 07/07 A3025 RMK AO2 T00680065
KTTA 210725Z AUTO 00000KT 1 3/4SM BR VV007 07/07 A3025 RMK AO2 VIS 1V5 T00740072
KTTA 210705Z AUTO 00000KT 1 3/4SM BR VV007 08/07 A3025 RMK AO2 VIS 3/4V5 T00750072
KTTA 210645Z AUTO 00000KT 7SM CLR 08/07 A3025 RMK AO2 T00760074
KTTA 210625Z AUTO 00000KT 10SM CLR 08/08 A3026 RMK AO2 T00780075
KTTA 210605Z AUTO 00000KT 1SM BR VV007 08/07 A3025 RMK AO2 VIS 1/2V3 T00760073
KTTA 210545Z AUTO 00000KT 10SM CLR 08/08 A3026 RMK AO2 T00830079
KTTA 210525Z AUTO 00000KT 7SM CLR 09/08 A3026 RMK AO2 T00850081
KTTA 210505Z AUTO 00000KT 7SM CLR 09/08 A3026 RMK AO2 T00850081
KTTA 210445Z AUTO 00000KT 10SM CLR 09/09 A3026 RMK AO2 T00900085
KTTA 210425Z AUTO 00000KT 10SM CLR 09/09 A3026 RMK AO2 T00910087
KTTA 210405Z AUTO 00000KT 10SM CLR 09/09 A3026 RMK AO2 T00930089
KTTA 210345Z AUTO 00000KT 7SM CLR 09/09 A3025 RMK AO2 T00920087
KTTA 210325Z AUTO 00000KT 10SM CLR 10/09 A3025 RMK AO2 T01000092
KTTA 210305Z AUTO 00000KT 10SM CLR 10/10 A3025 RMK AO2 T01020096
KTTA 210245Z AUTO 00000KT 10SM CLR 11/10 A3024 RMK AO2 T01050097
KTTA 210225Z AUTO 00000KT 10SM CLR 11/10 A3024 RMK AO2 T01080097
KTTA 210205Z AUTO 00000KT 10SM CLR 11/10 A3023 RMK AO2 T01120100
KTTA 210145Z AUTO 00000KT 10SM CLR 12/10 A3023 RMK AO2 T01150100
KTTA 210125Z AUTO 00000KT 10SM CLR 12/11 A3022 RMK AO2 T01200106
KTTA 210105Z AUTO 00000KT 10SM CLR 13/10 A3022 RMK AO2 T01270102
KTTA 210045Z AUTO 00000KT 10SM CLR 13/11 A3021 RMK AO2 T01310105
KTTA 210025Z AUTO 00000KT 10SM CLR 14/11 A3021 RMK AO2 T01350106
KTTA 210005Z AUTO 00000KT 10SM CLR 14/10 A3022 RMK AO2 T01380103
KTTA 202345Z AUTO 00000KT 10SM CLR 15/11 A3021 RMK AO2 T01520105
KTTA 202325Z AUTO 00000KT 10SM CLR 16/10 A3020 RMK AO2 T01630104
KTTA 202305Z AUTO 00000KT 10SM CLR 17/11 A3020 RMK AO2 T01740110
KTTA 202245Z AUTO 00000KT 10SM CLR 19/11 A3019 RMK AO2 T01890107
KTTA 202225Z AUTO 00000KT 10SM CLR 21/12 A3018 RMK AO2 T02050115
KTTA 202205Z AUTO 00000KT 10SM CLR 22/11 A3018 RMK AO2 T02240112
KTTA 202145Z AUTO 00000KT 10SM CLR 25/08 A3018 RMK AO2 T02460082
KTTA 202125Z AUTO 02003KT 10SM CLR 25/08 A3018 RMK AO2 T02460083
KTTA 202105Z AUTO 00000KT 10SM CLR 25/08 A3018 RMK AO2 T02480079
KTTA 202045Z AUTO 05005KT 10SM CLR 25/08 A3018 RMK AO2 T02500080
KTTA 202025Z AUTO 03004KT 10SM CLR 25/08 A3019 RMK AO2 T02500078
KTTA 202005Z AUTO 02006KT 10SM CLR 25/08 A3019 RMK AO2 T02470075
KTTA 201945Z AUTO 00000KT 10SM CLR 25/07 A3019 RMK AO2 T02470071
KTTA 201925Z AUTO 01005KT 10SM CLR 25/07 A3019 RMK AO2 T02480072
KTTA 201905Z AUTO 36005KT 10SM CLR 25/07 A3019 RMK AO2 T02480070
KTTA 201845Z AUTO 36006KT 10SM CLR 25/07 A3020 RMK AO2 T02450066
KTTA 201825Z AUTO 33007KT 10SM CLR 25/06 A3020 RMK AO2 T02460059
KTTA 201805Z AUTO 35007KT 10SM CLR 24/06 A3022 RMK AO2 T02440060
KTTA 201745Z AUTO 36006KT 10SM CLR 24/07 A3022 RMK AO2 T02410065
KTTA 201725Z AUTO 04004KT 10SM CLR 24/07 A3023 RMK AO2 T02390074
KTTA 201705Z AUTO 35006KT 10SM CLR 24/08 A3024 RMK AO2 T02360075
KTTA 201645Z AUTO 35005KT 10SM CLR 23/08 A3025 RMK AO2 T02310082
KTTA 201625Z AUTO 01008KT 10SM CLR 23/08 A3026 RMK AO2 T02280076
KTTA 201605Z AUTO 35007KT 10SM CLR 22/08 A3026 RMK AO2 T02240081
KTTA 201545Z AUTO 03003KT 10SM CLR 21/09 A3027 RMK AO2 T02140092
KTTA 201525Z AUTO 01004KT 10SM CLR 21/09 A3027 RMK AO2 T02070085
KTTA 201505Z AUTO 33005KT 10SM CLR 20/09 A3027 RMK AO2 T02000089
KTTA 201445Z AUTO 00000KT 10SM CLR 18/10 A3027 RMK AO2 T01750098
KTTA 201425Z AUTO 00000KT 10SM CLR 16/10 A3028 RMK AO2 T01580098
KTTA 201405Z AUTO 00000KT 10SM CLR 14/09 A3028 RMK AO2 T01370093
KTTA 201345Z AUTO 00000KT 10SM CLR 12/09 A3028 RMK AO2 T01210089
KTTA 201325Z AUTO 00000KT 10SM CLR 11/08 A3028 RMK AO2 T01060084
KTTA 201305Z AUTO 00000KT 10SM CLR 09/07 A3028 RMK AO2 T00920073
KTTA 201245Z AUTO 00000KT 10SM CLR 07/07 A3027 RMK AO2 T00740069
KTTA 201225Z AUTO 00000KT 10SM CLR 05/05 A3026 RMK AO2 T00540050
KTTA 201205Z AUTO 00000KT 10SM CLR 04/03 A3025 RMK AO2 T00380033
KTTA 201145Z AUTO 00000KT 10SM CLR 04/03 A3025 RMK AO2 T00360033
KTTA 201125Z AUTO 00000KT 10SM CLR 04/03 A3025 RMK AO2 T00360034
KTTA 201105Z AUTO 00000KT 10SM CLR 04/03 A3024 RMK AO2 T00360032
KTTA 201045Z AUTO 00000KT 10SM CLR 04/04 A3024 RMK AO2 T00400035
KTTA 201025Z AUTO 00000KT 10SM CLR 04/04 A3023 RMK AO2 T00390035
KTTA 201005Z AUTO 00000KT 10SM CLR 04/04 A3023 RMK AO2 T00400035
KTTA 200945Z AUTO 00000KT 10SM CLR 04/04 A3022 RMK AO2 T00380035
KTTA 200925Z AUTO 00000KT 10SM CLR 04/04 A3022 RMK AO2 T00400035
KTTA 200905Z AUTO 00000KT 10SM CLR 05/04 A3022 RMK AO2 T00450040
KTTA 200845Z AUTO 00000KT 10SM CLR 05/04 A3021 RMK AO2 T00460042
KTTA 200825Z AUTO 00000KT 10SM CLR 05/05 A3021 RMK AO2 T00490045
KTTA 200805Z AUTO 00000KT 10SM CLR 05/04 A3020 RMK AO2 T00470044
KTTA 200745Z AUTO 00000KT 10SM CLR 05/05 A3021 RMK AO2 T00490045
KTTA 200725Z AUTO 00000KT 10SM CLR 05/04 A3021 RMK AO2 T00460042
KTTA 200705Z AUTO 00000KT 10SM CLR 05/05 A3022 RMK AO2 T00480045
KTTA 200645Z AUTO 00000KT 05/05 A3022 RMK AO2 T00540050 PWINO
KTTA 200625Z AUTO 00000KT 10SM CLR 06/05 A3022 RMK AO2 T00550050
KTTA 200605Z AUTO 00000KT 10SM CLR 06/06 A3022 RMK AO2 T00570055